Time;durP1;ratioP1;P1;durP2;ratioP2;P2;SDS_P1;SDS_P2;PMS_P1;PMS_P2;Temp;Humidity;BMP_temperature;BMP_pressure;BME280_temperature;BME280_humidity;BME280_pressure;Samples;Min_cycle;Max_cycle;Signal;HPM_P1;HPM_P2
2023/02/08 00:01:10;;;;;;;4.00;3.60;;;;;;;;;;4540063;28;20048;-62
2023/02/08 00:03:20;;;;;;;3.90;3.60;;;;;;;;;;4520708;28;20034;-62
2023/02/08 00:05:31;;;;;;;3.90;3.50;;;;;;;;;;4539282;28;20409;-63
2023/02/08 00:07:42;;;;;;;4.00;3.60;;;;;;;;;;4539459;28;20115;-62
2023/02/08 00:09:52;;;;;;;4.30;3.90;;;;;;;;;;4520476;28;20048;-63
2023/02/08 00:12:02;;;;;;;4.13;3.72;;;;;;;;;;4538916;28;20456;-63
2023/02/08 00:14:13;;;;;;;3.63;3.33;;;;;;;;;;4539384;28;20575;-62
2023/02/08 00:16:23;;;;;;;4.30;3.90;;;;;;;;;;4524375;28;20088;-62
2023/02/08 00:18:33;;;;;;;3.80;3.50;;;;;;;;;;4539253;28;20090;-61
2023/02/08 00:20:44;;;;;;;3.90;3.60;;;;;;;;;;4539202;28;20033;-63
2023/02/08 00:22:55;;;;;;;4.00;3.60;;;;;;;;;;4521034;28;20330;-62
2023/02/08 00:25:05;;;;;;;4.00;3.60;;;;;;;;;;4539244;28;20043;-63
2023/02/08 00:27:16;;;;;;;4.10;3.70;;;;;;;;;;4539041;28;20035;-62
2023/02/08 00:29:26;;;;;;;3.47;3.17;;;;;;;;;;4539967;28;20045;-61
2023/02/08 00:31:37;;;;;;;3.60;3.30;;;;;;;;;;4521974;28;20040;-62
2023/02/08 00:33:47;;;;;;;3.70;3.40;;;;;;;;;;4520584;28;20132;-63
2023/02/08 00:35:59;;;;;;;3.80;3.50;;;;;;;;;;4539377;28;20597;-63
2023/02/08 00:38:09;;;;;;;3.60;3.30;;;;;;;;;;4539169;28;20779;-63
2023/02/08 00:40:19;;;;;;;4.00;3.60;;;;;;;;;;4539051;28;20045;-62
2023/02/08 00:42:30;;;;;;;3.83;3.42;;;;;;;;;;4539542;28;20033;-62
2023/02/08 00:44:40;;;;;;;3.92;3.53;;;;;;;;;;4540300;28;20441;-62
2023/02/08 00:46:51;;;;;;;4.00;3.60;;;;;;;;;;4539541;28;20177;-62
2023/02/08 00:49:01;;;;;;;3.97;3.58;;;;;;;;;;4520895;28;20049;-63
2023/02/08 00:51:12;;;;;;;3.70;3.40;;;;;;;;;;4539409;28;20036;-62
2023/02/08 00:53:23;;;;;;;3.80;3.50;;;;;;;;;;4539541;28;21074;-62
2023/02/08 00:55:33;;;;;;;3.80;3.50;;;;;;;;;;4505409;28;20109;-62
2023/02/08 00:57:43;;;;;;;4.00;3.60;;;;;;;;;;4521199;28;20049;-62
2023/02/08 00:59:54;;;;;;;3.63;3.33;;;;;;;;;;4539614;28;20033;-62
2023/02/08 01:02:04;;;;;;;4.03;3.63;;;;;;;;;;4540676;28;20069;-63
2023/02/08 01:04:15;;;;;;;3.90;3.60;;;;;;;;;;4540001;28;20071;-63
2023/02/08 01:06:25;;;;;;;3.65;3.35;;;;;;;;;;4540385;28;20033;-62
2023/02/08 01:08:35;;;;;;;3.70;3.40;;;;;;;;;;4539224;28;20037;-62
2023/02/08 01:10:46;;;;;;;3.90;3.55;;;;;;;;;;4520491;28;20053;-62
2023/02/08 01:12:56;;;;;;;3.90;3.55;;;;;;;;;;4539280;28;20041;-63
2023/02/08 01:15:07;;;;;;;3.70;3.40;;;;;;;;;;4520408;28;20068;-61
2023/02/08 01:17:17;;;;;;;3.65;3.35;;;;;;;;;;4538138;28;20056;-62
2023/02/08 01:19:28;;;;;;;3.92;3.53;;;;;;;;;;4538991;28;20240;-62
2023/02/08 01:21:39;;;;;;;3.75;3.45;;;;;;;;;;4538829;28;20095;-62
2023/02/08 01:23:49;;;;;;;3.80;3.50;;;;;;;;;;4538848;28;20031;-62
2023/02/08 01:26:00;;;;;;;3.42;3.13;;;;;;;;;;4540488;28;20539;-62
2023/02/08 01:28:10;;;;;;;3.60;3.30;;;;;;;;;;4539577;28;20102;-62
2023/02/08 01:30:20;;;;;;;3.38;3.08;;;;;;;;;;4521240;28;20609;-63
2023/02/08 01:32:32;;;;;;;3.60;3.30;;;;;;;;;;4522192;28;20727;-62
2023/02/08 01:34:45;;;;;;;4.30;3.90;;;;;;;;;;4525279;28;20032;-62
2023/02/08 01:36:55;;;;;;;3.88;3.47;;;;;;;;;;4539154;28;20032;-62
2023/02/08 01:39:06;;;;;;;3.40;3.10;;;;;;;;;;4539761;28;20033;-62
2023/02/08 01:41:28;;;;;;;3.42;3.13;;;;;;;;;;4521101;28;20053;-62
2023/02/08 01:43:58;;;;;;;3.88;3.53;;;;;;;;;;4539003;28;20029;-62
2023/02/08 01:46:08;;;;;;;3.47;3.17;;;;;;;;;;4539064;28;20130;-63
2023/02/08 01:48:24;;;;;;;3.35;3.05;;;;;;;;;;4538533;28;20099;-62
2023/02/08 01:50:47;;;;;;;3.72;3.42;;;;;;;;;;4503703;28;20026;-63
2023/02/08 01:52:58;;;;;;;3.53;3.22;;;;;;;;;;4539116;28;20048;-62
2023/02/08 01:55:13;;;;;;;3.45;3.15;;;;;;;;;;4538980;28;20477;-62
2023/02/08 01:57:24;;;;;;;3.58;3.28;;;;;;;;;;4520125;28;20037;-62
2023/02/08 01:59:40;;;;;;;3.58;3.25;;;;;;;;;;4519901;28;20100;-62
2023/02/08 02:01:53;;;;;;;3.50;3.20;;;;;;;;;;4521886;28;20114;-63
2023/02/08 02:04:04;;;;;;;4.10;3.70;;;;;;;;;;4541631;28;20118;-61
2023/02/08 02:06:17;;;;;;;3.72;3.42;;;;;;;;;;4539476;28;20308;-63
2023/02/08 02:08:27;;;;;;;3.40;3.10;;;;;;;;;;4523505;28;20033;-62
2023/02/08 02:10:38;;;;;;;3.78;3.45;;;;;;;;;;4541188;28;20029;-62
2023/02/08 02:12:49;;;;;;;3.60;3.30;;;;;;;;;;4541465;28;20100;-62
2023/02/08 02:15:00;;;;;;;3.40;3.10;;;;;;;;;;4523170;28;20033;-63
2023/02/08 02:17:13;;;;;;;3.42;3.13;;;;;;;;;;4541344;28;20036;-62
2023/02/08 02:19:32;;;;;;;3.40;3.10;;;;;;;;;;4522080;28;20025;-62
2023/02/08 02:22:00;;;;;;;3.72;3.30;;;;;;;;;;4541028;28;20048;-63
2023/02/08 02:24:37;;;;;;;3.47;3.17;;;;;;;;;;4541381;28;20048;-63
2023/02/08 02:26:47;;;;;;;3.47;3.17;;;;;;;;;;4541820;28;20627;-62
2023/02/08 02:29:16;;;;;;;3.80;3.50;;;;;;;;;;4525717;28;20170;-63
2023/02/08 02:31:47;;;;;;;3.50;3.20;;;;;;;;;;4541531;28;20033;-62
2023/02/08 02:34:00;;;;;;;3.60;3.30;;;;;;;;;;4531906;28;20061;-63
2023/02/08 02:36:18;;;;;;;3.28;2.97;;;;;;;;;;4521851;28;20508;-62
2023/02/08 02:38:38;;;;;;;3.40;3.10;;;;;;;;;;4538943;28;21336;-63
2023/02/08 02:40:54;;;;;;;3.75;3.38;;;;;;;;;;4542580;28;20075;-63
2023/02/08 02:45:47;;;;;;;2.95;2.75;;;;;;;;;;4523724;28;20264;-62
2023/02/08 02:48:16;;;;;;;3.38;3.08;;;;;;;;;;4541372;28;20155;-62
2023/02/08 02:50:39;;;;;;;3.38;3.08;;;;;;;;;;4541241;28;20041;-62
2023/02/08 02:52:49;;;;;;;3.42;3.13;;;;;;;;;;4541792;28;20041;-63
2023/02/08 02:55:04;;;;;;;3.60;3.30;;;;;;;;;;4541917;28;20049;-63
2023/02/08 02:57:17;;;;;;;3.28;2.97;;;;;;;;;;4541717;28;20606;-62
2023/02/08 02:59:27;;;;;;;2.92;2.72;;;;;;;;;;4541085;28;20041;-63
2023/02/08 03:01:38;;;;;;;3.38;3.08;;;;;;;;;;4542270;28;20041;-62
2023/02/08 03:03:49;;;;;;;3.50;3.20;;;;;;;;;;4541894;28;20033;-63
2023/02/08 03:06:02;;;;;;;3.20;2.90;;;;;;;;;;4541170;28;20037;-63
2023/02/08 03:08:15;;;;;;;2.90;2.70;;;;;;;;;;4541585;28;20041;-63
2023/02/08 03:10:44;;;;;;;2.95;2.70;;;;;;;;;;4541817;28;20041;-63
2023/02/08 03:13:13;;;;;;;3.10;2.80;;;;;;;;;;4541438;28;20041;-63
2023/02/08 03:15:42;;;;;;;3.05;2.83;;;;;;;;;;4525188;28;20533;-63
2023/02/08 03:18:11;;;;;;;3.33;2.83;;;;;;;;;;4541424;28;20568;-63
2023/02/08 03:20:25;;;;;;;3.08;2.78;;;;;;;;;;4541841;28;20512;-62
2023/02/08 03:23:08;;;;;;;3.10;2.80;;;;;;;;;;4522887;28;20041;-63
2023/02/08 03:25:22;;;;;;;3.00;2.70;;;;;;;;;;4506034;28;20131;-62
2023/02/08 03:27:35;;;;;;;3.33;3.03;;;;;;;;;;4541215;28;20040;-63
2023/02/08 03:29:48;;;;;;;3.13;2.83;;;;;;;;;;4541793;28;20029;-63
2023/02/08 03:31:59;;;;;;;3.00;2.70;;;;;;;;;;4541665;28;20592;-63
2023/02/08 03:34:16;;;;;;;2.88;2.60;;;;;;;;;;4522532;28;20034;-63
2023/02/08 03:36:39;;;;;;;3.20;2.88;;;;;;;;;;4542185;28;20333;-63
2023/02/08 03:38:51;;;;;;;2.97;2.72;;;;;;;;;;4541280;28;20055;-63
2023/02/08 03:41:03;;;;;;;3.08;2.78;;;;;;;;;;4541042;28;20037;-63
2023/02/08 03:43:16;;;;;;;2.80;2.60;;;;;;;;;;4522389;28;20045;-63
2023/02/08 03:45:36;;;;;;;2.67;2.47;;;;;;;;;;4540898;28;20064;-63
2023/02/08 03:47:48;;;;;;;2.80;2.60;;;;;;;;;;4540620;28;20099;-63
2023/02/08 03:50:00;;;;;;;3.17;2.60;;;;;;;;;;4540429;28;20037;-63
2023/02/08 03:52:10;;;;;;;2.60;2.40;;;;;;;;;;4540118;28;20482;-63
2023/02/08 03:54:23;;;;;;;2.70;2.40;;;;;;;;;;4539818;28;20037;-63
2023/02/08 03:56:43;;;;;;;2.80;2.60;;;;;;;;;;4506994;28;20102;-63
2023/02/08 03:58:58;;;;;;;2.78;2.55;;;;;;;;;;4540737;28;20037;-62
2023/02/08 04:01:18;;;;;;;2.75;2.42;;;;;;;;;;4539741;28;20033;-63
2023/02/08 04:03:29;;;;;;;2.60;2.40;;;;;;;;;;4540621;28;20040;-63
2023/02/08 04:05:40;;;;;;;2.95;2.70;;;;;;;;;;4540281;28;20037;-63
2023/02/08 04:07:51;;;;;;;2.60;2.40;;;;;;;;;;4539522;28;20106;-63
2023/02/08 04:10:01;;;;;;;2.90;2.60;;;;;;;;;;4540240;28;20045;-64
2023/02/08 04:12:12;;;;;;;2.75;2.50;;;;;;;;;;4540115;28;20037;-63
2023/02/08 04:14:22;;;;;;;2.78;2.58;;;;;;;;;;4540077;28;20041;-62
2023/02/08 04:16:32;;;;;;;2.80;2.60;;;;;;;;;;4539317;28;20106;-63
2023/02/08 04:18:42;;;;;;;3.15;2.85;;;;;;;;;;4540225;28;20037;-63
2023/02/08 04:20:53;;;;;;;3.05;2.75;;;;;;;;;;4540367;28;20064;-63
2023/02/08 04:23:03;;;;;;;3.00;2.80;;;;;;;;;;4522074;28;20513;-63
2023/02/08 04:25:14;;;;;;;2.80;2.60;;;;;;;;;;4539158;28;20323;-63
2023/02/08 04:27:24;;;;;;;2.40;2.20;;;;;;;;;;4539629;28;20041;-63
2023/02/08 04:29:34;;;;;;;2.60;2.40;;;;;;;;;;4538983;28;20051;-63
2023/02/08 04:31:45;;;;;;;2.58;2.38;;;;;;;;;;4539952;28;20544;-63
2023/02/08 04:33:55;;;;;;;2.53;2.33;;;;;;;;;;4539600;28;20125;-63
2023/02/08 04:36:05;;;;;;;2.75;2.53;;;;;;;;;;4539224;28;20024;-63
2023/02/08 04:38:16;;;;;;;2.53;2.33;;;;;;;;;;4539499;28;20572;-63
2023/02/08 04:40:26;;;;;;;2.70;2.50;;;;;;;;;;4539582;28;20052;-63
2023/02/08 04:42:36;;;;;;;2.50;2.30;;;;;;;;;;4539290;28;20115;-62
2023/02/08 04:44:47;;;;;;;2.47;2.28;;;;;;;;;;4538980;28;20116;-63
2023/02/08 04:46:58;;;;;;;2.50;2.30;;;;;;;;;;4520634;28;20139;-63
2023/02/08 04:49:08;;;;;;;2.83;2.63;;;;;;;;;;4539537;28;20042;-63
2023/02/08 04:51:18;;;;;;;2.30;2.10;;;;;;;;;;4539033;28;20569;-65
2023/02/08 04:53:29;;;;;;;2.78;2.58;;;;;;;;;;4540566;28;20044;-63
2023/02/08 04:55:39;;;;;;;2.92;2.33;;;;;;;;;;4539761;28;20037;-63
2023/02/08 04:57:49;;;;;;;2.58;2.38;;;;;;;;;;4539070;28;20029;-63
2023/02/08 04:59:59;;;;;;;2.65;2.45;;;;;;;;;;4522753;28;20117;-63
2023/02/08 05:02:10;;;;;;;2.50;2.30;;;;;;;;;;4540151;28;20037;-63
2023/02/08 05:04:20;;;;;;;3.90;3.60;;;;;;;;;;4539767;28;20048;-62
2023/02/08 05:06:31;;;;;;;4.97;4.57;;;;;;;;;;4539940;28;20116;-63
2023/02/08 05:08:41;;;;;;;6.90;6.30;;;;;;;;;;4520854;28;20049;-63
2023/02/08 05:10:51;;;;;;;6.38;5.88;;;;;;;;;;4539962;28;20048;-63
2023/02/08 05:13:02;;;;;;;6.20;5.70;;;;;;;;;;4524664;28;20068;-63
2023/02/08 05:15:12;;;;;;;6.63;6.03;;;;;;;;;;4521824;28;20037;-63
2023/02/08 05:17:22;;;;;;;5.78;5.28;;;;;;;;;;4537894;28;20111;-62
2023/02/08 05:19:33;;;;;;;6.28;5.78;;;;;;;;;;4521620;28;20143;-63
2023/02/08 05:21:43;;;;;;;4.50;4.10;;;;;;;;;;4538819;28;20075;-63
2023/02/08 05:23:53;;;;;;;5.13;4.63;;;;;;;;;;4539662;28;20041;-63
2023/02/08 05:26:05;;;;;;;3.95;3.55;;;;;;;;;;4539180;28;20033;-63
2023/02/08 05:28:15;;;;;;;3.40;3.10;;;;;;;;;;4540126;28;20053;-63
2023/02/08 05:30:25;;;;;;;3.25;2.95;;;;;;;;;;4522987;28;20026;-63
2023/02/08 05:32:35;;;;;;;3.03;2.72;;;;;;;;;;4521317;28;20045;-63
2023/02/08 05:34:46;;;;;;;3.40;3.10;;;;;;;;;;4539007;28;20116;-63
2023/02/08 05:36:57;;;;;;;6.22;5.72;;;;;;;;;;4538772;28;20036;-63
2023/02/08 05:39:07;;;;;;;5.20;4.70;;;;;;;;;;4537813;28;20039;-63
2023/02/08 05:41:17;;;;;;;3.60;3.30;;;;;;;;;;4520333;28;20045;-63
2023/02/08 05:43:28;;;;;;;3.53;3.22;;;;;;;;;;4538618;28;20041;-63
2023/02/08 05:45:38;;;;;;;3.33;3.03;;;;;;;;;;4538551;28;20055;-63
2023/02/08 05:47:49;;;;;;;3.38;3.08;;;;;;;;;;4539784;28;20037;-63
2023/02/08 05:49:59;;;;;;;3.40;3.10;;;;;;;;;;4540424;28;20041;-63
2023/02/08 05:52:09;;;;;;;4.00;3.60;;;;;;;;;;4504885;28;20426;-63
2023/02/08 05:54:20;;;;;;;3.25;2.95;;;;;;;;;;4538815;28;20052;-63
2023/02/08 05:56:30;;;;;;;3.20;2.90;;;;;;;;;;4521253;28;20037;-63
2023/02/08 05:58:40;;;;;;;3.40;3.10;;;;;;;;;;4539066;28;20029;-62
2023/02/08 06:00:52;;;;;;;3.92;2.78;;;;;;;;;;4538294;28;20041;-63
2023/02/08 06:03:02;;;;;;;2.90;2.70;;;;;;;;;;4538585;28;20152;-63
2023/02/08 06:05:12;;;;;;;2.92;2.72;;;;;;;;;;4538852;28;20037;-63
2023/02/08 06:07:23;;;;;;;2.70;2.50;;;;;;;;;;4503484;28;20050;-62
2023/02/08 06:09:33;;;;;;;3.25;2.95;;;;;;;;;;4538775;28;20044;-63
2023/02/08 06:11:43;;;;;;;3.20;2.90;;;;;;;;;;4538854;28;20048;-63
2023/02/08 06:13:54;;;;;;;3.40;3.10;;;;;;;;;;4538540;28;20045;-63
2023/02/08 06:16:05;;;;;;;3.45;2.80;;;;;;;;;;4539150;28;20112;-63
2023/02/08 06:18:15;;;;;;;3.00;2.70;;;;;;;;;;4538678;28;20132;-63
2023/02/08 06:20:25;;;;;;;2.70;2.50;;;;;;;;;;4538903;28;20033;-61
2023/02/08 06:22:36;;;;;;;3.03;2.72;;;;;;;;;;4538198;28;20041;-63
2023/02/08 06:24:47;;;;;;;3.30;3.00;;;;;;;;;;4537604;28;20591;-63
2023/02/08 06:26:57;;;;;;;3.05;2.75;;;;;;;;;;4538154;28;20041;-63
2023/02/08 06:29:08;;;;;;;2.67;2.47;;;;;;;;;;4537041;28;20048;-63
2023/02/08 06:31:18;;;;;;;2.70;2.50;;;;;;;;;;4538848;28;20032;-63
2023/02/08 06:33:29;;;;;;;3.00;2.70;;;;;;;;;;4538199;28;20098;-64
2023/02/08 06:35:39;;;;;;;3.25;2.95;;;;;;;;;;4520536;28;20057;-63
2023/02/08 06:37:49;;;;;;;2.90;2.60;;;;;;;;;;4537956;28;20037;-63
2023/02/08 06:40:00;;;;;;;2.67;2.47;;;;;;;;;;4520119;28;20033;-63
2023/02/08 06:42:11;;;;;;;3.03;2.72;;;;;;;;;;4537107;28;20124;-63
2023/02/08 06:44:21;;;;;;;2.80;2.58;;;;;;;;;;4538010;28;20036;-63
2023/02/08 06:46:31;;;;;;;2.75;2.47;;;;;;;;;;4520119;28;20080;-63
2023/02/08 06:48:42;;;;;;;2.80;2.60;;;;;;;;;;4540547;28;20056;-63
2023/02/08 06:50:53;;;;;;;2.85;2.65;;;;;;;;;;4540689;28;20068;-63
2023/02/08 06:53:04;;;;;;;2.90;2.60;;;;;;;;;;4538423;28;20065;-63
2023/02/08 06:55:14;;;;;;;3.17;2.88;;;;;;;;;;4540475;28;20140;-63
2023/02/08 06:57:25;;;;;;;3.30;3.00;;;;;;;;;;4539262;28;20064;-63
2023/02/08 06:59:35;;;;;;;2.97;2.78;;;;;;;;;;4539383;28;20385;-63
2023/02/08 07:01:45;;;;;;;3.30;3.00;;;;;;;;;;4521331;28;20112;-64
2023/02/08 07:03:55;;;;;;;3.13;2.83;;;;;;;;;;4538936;28;20048;-64
2023/02/08 07:06:13;;;;;;;3.15;2.85;;;;;;;;;;4538292;28;20040;-64
2023/02/08 07:08:23;;;;;;;2.80;2.60;;;;;;;;;;4521125;28;20053;-64
2023/02/08 07:10:33;;;;;;;3.22;2.92;;;;;;;;;;4538042;28;20107;-64
2023/02/08 07:12:43;;;;;;;3.40;3.10;;;;;;;;;;4521634;28;20632;-64
2023/02/08 07:14:54;;;;;;;3.20;2.90;;;;;;;;;;4540626;28;20044;-64
2023/02/08 07:17:04;;;;;;;3.38;2.75;;;;;;;;;;4539952;28;20542;-64
2023/02/08 07:19:14;;;;;;;2.78;2.50;;;;;;;;;;4540205;28;20036;-64
2023/02/08 07:21:26;;;;;;;3.20;2.90;;;;;;;;;;4521287;28;20025;-64
2023/02/08 07:23:40;;;;;;;3.00;2.70;;;;;;;;;;4540193;28;20730;-64
2023/02/08 07:25:57;;;;;;;3.15;2.85;;;;;;;;;;4539082;28;20104;-65
2023/02/08 07:28:07;;;;;;;3.25;2.95;;;;;;;;;;4539547;28;20032;-64
2023/02/08 07:30:18;;;;;;;3.20;2.90;;;;;;;;;;4539940;28;20044;-64
2023/02/08 07:32:28;;;;;;;3.38;3.08;;;;;;;;;;4539395;28;20029;-64
2023/02/08 07:34:39;;;;;;;3.40;3.10;;;;;;;;;;4522071;28;20025;-65
2023/02/08 07:36:49;;;;;;;3.45;3.15;;;;;;;;;;4539591;28;20072;-67
2023/02/08 07:39:00;;;;;;;3.65;3.20;;;;;;;;;;4539179;28;20733;-65
2023/02/08 07:41:11;;;;;;;3.60;3.30;;;;;;;;;;4520598;28;20037;-65
2023/02/08 07:43:22;;;;;;;4.10;3.70;;;;;;;;;;4539375;28;20041;-66
2023/02/08 07:45:40;;;;;;;3.90;3.50;;;;;;;;;;4521387;28;20870;-65
2023/02/08 07:47:50;;;;;;;3.78;3.47;;;;;;;;;;4522378;28;20045;-65
2023/02/08 07:50:01;;;;;;;3.38;3.08;;;;;;;;;;4539400;28;20106;-64
2023/02/08 07:52:11;;;;;;;3.88;3.47;;;;;;;;;;4539322;28;20099;-64
2023/02/08 07:54:21;;;;;;;3.58;3.28;;;;;;;;;;4519618;28;20486;-64
2023/02/08 07:56:32;;;;;;;3.67;3.38;;;;;;;;;;4539032;28;20793;-65
2023/02/08 07:58:42;;;;;;;3.40;3.10;;;;;;;;;;4522714;28;20025;-64
2023/02/08 08:00:53;;;;;;;3.25;2.95;;;;;;;;;;4539745;28;20065;-64
2023/02/08 08:03:03;;;;;;;3.60;3.30;;;;;;;;;;4539520;28;20037;-65
2023/02/08 08:05:13;;;;;;;3.53;3.05;;;;;;;;;;4540264;28;20470;-65
2023/02/08 08:07:23;;;;;;;3.00;2.70;;;;;;;;;;4539028;28;20074;-65
2023/02/08 08:09:34;;;;;;;3.42;3.13;;;;;;;;;;4538811;28;20049;-65
2023/02/08 08:11:44;;;;;;;3.30;3.00;;;;;;;;;;4520703;28;20037;-65
2023/02/08 08:13:55;;;;;;;3.10;2.80;;;;;;;;;;4539407;28;20134;-65
2023/02/08 08:16:05;;;;;;;3.10;2.80;;;;;;;;;;4521789;28;20042;-65
2023/02/08 08:18:15;;;;;;;3.40;3.10;;;;;;;;;;4522335;28;20094;-65
2023/02/08 08:20:26;;;;;;;3.42;3.13;;;;;;;;;;4539828;28;20033;-64
2023/02/08 08:22:36;;;;;;;3.03;2.80;;;;;;;;;;4538981;28;20552;-65
2023/02/08 08:24:46;;;;;;;3.08;2.78;;;;;;;;;;4538930;28;20782;-64
2023/02/08 08:26:57;;;;;;;3.17;2.88;;;;;;;;;;4539873;28;20028;-65
2023/02/08 08:29:07;;;;;;;3.45;3.15;;;;;;;;;;4538822;28;20052;-64
2023/02/08 08:31:19;;;;;;;3.25;2.95;;;;;;;;;;4539065;28;20963;-64
2023/02/08 08:33:29;;;;;;;3.30;2.80;;;;;;;;;;4539027;28;20376;-65
2023/02/08 08:35:40;;;;;;;3.42;3.13;;;;;;;;;;4539394;28;20029;-65
2023/02/08 08:37:50;;;;;;;3.30;3.00;;;;;;;;;;4538833;28;20115;-65
2023/02/08 08:40:00;;;;;;;3.33;3.03;;;;;;;;;;4538998;28;20048;-65
2023/02/08 08:42:11;;;;;;;3.40;3.10;;;;;;;;;;4539938;28;20036;-65
2023/02/08 08:44:21;;;;;;;3.58;3.28;;;;;;;;;;4538777;28;20036;-65
2023/02/08 08:46:32;;;;;;;3.50;3.20;;;;;;;;;;4539020;28;20029;-65
2023/02/08 08:48:42;;;;;;;3.47;3.17;;;;;;;;;;4539151;28;20607;-65
2023/02/08 08:50:53;;;;;;;3.30;3.00;;;;;;;;;;4538145;28;20037;-65
2023/02/08 08:53:04;;;;;;;3.63;3.33;;;;;;;;;;4539198;28;20537;-65
2023/02/08 08:55:14;;;;;;;3.83;3.47;;;;;;;;;;4538787;28;20021;-65
2023/02/08 08:57:24;;;;;;;3.50;3.20;;;;;;;;;;4522686;28;20560;-65
2023/02/08 08:59:35;;;;;;;3.30;3.00;;;;;;;;;;4539190;28;20043;-65
2023/02/08 09:01:45;;;;;;;3.50;3.20;;;;;;;;;;4539809;28;20132;-65
2023/02/08 09:03:55;;;;;;;3.67;3.38;;;;;;;;;;4539007;28;20072;-65
2023/02/08 09:06:06;;;;;;;3.50;3.20;;;;;;;;;;4520137;28;20033;-65
2023/02/08 09:08:16;;;;;;;3.70;3.28;;;;;;;;;;4537774;28;20043;-65
2023/02/08 09:10:26;;;;;;;3.67;3.30;;;;;;;;;;4538396;28;20576;-65
2023/02/08 09:12:37;;;;;;;3.40;3.10;;;;;;;;;;4538539;28;20140;-65
2023/02/08 09:14:47;;;;;;;3.97;3.58;;;;;;;;;;4538169;28;20122;-65
2023/02/08 09:16:57;;;;;;;4.10;3.70;;;;;;;;;;4538665;28;20134;-65
2023/02/08 09:19:09;;;;;;;4.18;3.78;;;;;;;;;;4539029;28;20037;-65
2023/02/08 09:21:20;;;;;;;3.85;3.47;;;;;;;;;;4539234;28;20040;-65
2023/02/08 09:23:31;;;;;;;4.07;3.67;;;;;;;;;;4520063;28;20093;-65
2023/02/08 09:25:41;;;;;;;3.58;3.28;;;;;;;;;;4537710;28;20040;-65
2023/02/08 09:27:51;;;;;;;3.80;3.40;;;;;;;;;;4539281;28;20037;-65
2023/02/08 09:30:02;;;;;;;3.70;3.40;;;;;;;;;;4537782;28;20047;-65
2023/02/08 09:32:12;;;;;;;3.50;3.20;;;;;;;;;;4538719;28;20040;-65
2023/02/08 09:34:23;;;;;;;3.35;3.05;;;;;;;;;;4537459;28;20240;-65
2023/02/08 09:36:34;;;;;;;3.28;2.97;;;;;;;;;;4519967;28;20108;-65
2023/02/08 09:38:45;;;;;;;3.40;3.10;;;;;;;;;;4537434;28;20037;-65
2023/02/08 09:41:10;;;;;;;3.30;3.00;;;;;;;;;;4537547;28;20386;-65
2023/02/08 09:43:24;;;;;;;3.30;3.00;;;;;;;;;;4537608;28;20037;-65
2023/02/08 09:45:47;;;;;;;3.42;2.97;;;;;;;;;;4537971;28;20597;-66
2023/02/08 09:48:07;;;;;;;3.30;3.00;;;;;;;;;;4520288;28;20088;-65
2023/02/08 09:50:38;;;;;;;3.40;3.10;;;;;;;;;;4538648;28;20623;-65
2023/02/08 09:52:56;;;;;;;3.00;2.70;;;;;;;;;;4518597;28;20120;-65
2023/02/08 09:55:14;;;;;;;3.28;2.97;;;;;;;;;;4537804;28;20028;-65
2023/02/08 09:57:27;;;;;;;3.55;2.97;;;;;;;;;;4537497;28;20095;-65
2023/02/08 09:59:39;;;;;;;3.00;2.70;;;;;;;;;;4537983;28;20041;-65
2023/02/08 10:01:52;;;;;;;3.20;2.90;;;;;;;;;;4537989;28;20033;-65
2023/02/08 10:04:23;;;;;;;2.97;2.67;;;;;;;;;;4534935;28;20044;-65
2023/02/08 10:06:33;;;;;;;2.72;2.47;;;;;;;;;;4536257;28;20056;-65
2023/02/08 10:08:45;;;;;;;2.90;2.60;;;;;;;;;;4520582;28;20108;-65
2023/02/08 10:11:18;;;;;;;2.95;2.58;;;;;;;;;;4537965;28;20140;-62
2023/02/08 10:13:28;;;;;;;2.88;2.50;;;;;;;;;;4515230;28;20048;-64
2023/02/08 10:15:42;;;;;;;2.85;2.55;;;;;;;;;;4536596;28;20033;-76
2023/02/08 10:18:11;;;;;;;2.83;2.53;;;;;;;;;;4520258;28;20337;-77
2023/02/08 10:20:51;;;;;;;2.65;2.22;;;;;;;;;;4538327;28;20032;-77
2023/02/08 10:23:20;;;;;;;2.47;2.28;;;;;;;;;;4484154;28;20046;-77
2023/02/08 10:25:44;;;;;;;2.13;1.92;;;;;;;;;;4523016;28;20052;-78
2023/02/08 10:28:17;;;;;;;2.45;2.17;;;;;;;;;;4541577;28;20051;-78
2023/02/08 10:30:46;;;;;;;2.38;2.17;;;;;;;;;;4542017;28;20726;-78
2023/02/08 10:33:15;;;;;;;2.17;1.98;;;;;;;;;;4541352;28;20570;-63
2023/02/08 10:35:36;;;;;;;2.15;1.95;;;;;;;;;;4539864;28;20049;-62
2023/02/08 10:37:46;;;;;;;2.42;2.22;;;;;;;;;;4540255;28;20043;-64
2023/02/08 10:39:59;;;;;;;2.40;2.20;;;;;;;;;;4519437;28;20032;-63
2023/02/08 10:42:12;;;;;;;2.55;2.03;;;;;;;;;;4500651;28;20076;-63
2023/02/08 10:44:32;;;;;;;2.90;2.60;;;;;;;;;;4478293;28;20045;-63
2023/02/08 10:46:55;;;;;;;2.50;2.22;;;;;;;;;;4521077;28;20108;-63
2023/02/08 10:49:22;;;;;;;2.10;1.90;;;;;;;;;;4478977;28;20052;-63
2023/02/08 10:51:33;;;;;;;2.10;1.90;;;;;;;;;;4501503;28;20080;-62
2023/02/08 10:53:44;;;;;;;2.50;2.30;;;;;;;;;;4508266;28;20041;-63
2023/02/08 10:55:55;;;;;;;2.53;2.30;;;;;;;;;;4513963;28;20598;-63
2023/02/08 10:58:06;;;;;;;2.78;2.45;;;;;;;;;;4531771;28;20028;-63
2023/02/08 11:00:16;;;;;;;2.03;1.85;;;;;;;;;;4500118;28;20045;-63
2023/02/08 11:02:30;;;;;;;2.63;2.40;;;;;;;;;;4540278;28;20577;-62
2023/02/08 11:04:56;;;;;;;2.38;2.17;;;;;;;;;;4540004;28;20028;-63
2023/02/08 11:07:18;;;;;;;2.40;2.20;;;;;;;;;;4520498;28;20092;-63
2023/02/08 11:09:29;;;;;;;2.42;2.22;;;;;;;;;;4539466;28;20049;-63
2023/02/08 11:11:41;;;;;;;2.40;2.20;;;;;;;;;;4540457;28;20025;-63
2023/02/08 11:13:52;;;;;;;2.90;2.55;;;;;;;;;;4528127;28;20056;-62
2023/02/08 11:16:04;;;;;;;2.95;2.65;;;;;;;;;;4539749;28;20033;-62
2023/02/08 11:18:18;;;;;;;2.58;2.30;;;;;;;;;;4539849;28;20111;-63
2023/02/08 11:20:32;;;;;;;2.60;2.35;;;;;;;;;;4539107;28;20041;-63
2023/02/08 11:22:44;;;;;;;2.60;2.40;;;;;;;;;;4539962;28;20049;-62
2023/02/08 11:24:56;;;;;;;2.40;2.20;;;;;;;;;;4531407;28;20608;-62
2023/02/08 11:27:14;;;;;;;2.30;2.10;;;;;;;;;;4537527;28;20657;-62
2023/02/08 11:29:26;;;;;;;2.28;2.08;;;;;;;;;;4538169;28;20048;-62
2023/02/08 11:31:36;;;;;;;2.53;2.05;;;;;;;;;;4538133;28;20087;-63
2023/02/08 11:34:00;;;;;;;2.22;2.03;;;;;;;;;;4536501;28;20044;-62
2023/02/08 11:36:12;;;;;;;2.00;1.80;;;;;;;;;;4536572;28;20471;-62
2023/02/08 11:38:26;;;;;;;2.30;1.95;;;;;;;;;;4538105;28;20622;-64
2023/02/08 11:40:41;;;;;;;2.30;2.10;;;;;;;;;;4537944;28;20572;-62
2023/02/08 11:42:51;;;;;;;2.00;1.80;;;;;;;;;;4537042;28;20800;-62
2023/02/08 11:45:03;;;;;;;2.00;1.80;;;;;;;;;;4538139;28;20033;-62
2023/02/08 11:47:15;;;;;;;2.42;1.90;;;;;;;;;;4519879;28;20037;-62
2023/02/08 11:49:36;;;;;;;2.25;1.90;;;;;;;;;;4537003;28;20099;-62
2023/02/08 11:51:48;;;;;;;2.10;1.90;;;;;;;;;;4537336;28;20259;-63
2023/02/08 11:53:59;;;;;;;2.30;2.03;;;;;;;;;;4538371;28;20045;-62
2023/02/08 11:56:18;;;;;;;1.90;1.80;;;;;;;;;;4537658;28;20501;-62
2023/02/08 11:58:28;;;;;;;2.28;2.03;;;;;;;;;;4519064;28;20049;-62
2023/02/08 12:00:39;;;;;;;2.17;1.92;;;;;;;;;;4538037;28;20075;-62
2023/02/08 12:02:50;;;;;;;2.25;2.05;;;;;;;;;;4537518;28;20029;-63
2023/02/08 12:05:01;;;;;;;2.10;1.90;;;;;;;;;;4537241;28;20623;-62
2023/02/08 12:07:38;;;;;;;2.30;2.00;;;;;;;;;;4519977;28;20539;-62
2023/02/08 12:09:59;;;;;;;2.03;1.83;;;;;;;;;;4516443;28;20080;-62
2023/02/08 12:12:16;;;;;;;2.17;1.98;;;;;;;;;;4537498;28;20044;-62
2023/02/08 12:14:38;;;;;;;1.83;1.70;;;;;;;;;;4538205;28;20033;-62
2023/02/08 12:16:53;;;;;;;2.17;1.98;;;;;;;;;;4537613;28;20091;-64
2023/02/08 12:19:23;;;;;;;2.17;1.98;;;;;;;;;;4536157;28;20726;-62
2023/02/08 12:21:36;;;;;;;2.00;1.80;;;;;;;;;;4536972;28;20033;-62
2023/02/08 12:23:50;;;;;;;2.05;1.80;;;;;;;;;;4537323;28;20043;-62
2023/02/08 12:26:19;;;;;;;2.17;1.90;;;;;;;;;;4536802;28;20021;-62
2023/02/08 12:28:32;;;;;;;2.42;2.22;;;;;;;;;;4537146;28;20068;-62
2023/02/08 12:30:47;;;;;;;1.88;1.70;;;;;;;;;;4536688;28;20655;-62
2023/02/08 12:32:57;;;;;;;2.80;2.60;;;;;;;;;;4537576;28;20027;-62
2023/02/08 12:35:26;;;;;;;2.10;1.90;;;;;;;;;;4538250;28;20531;-62
2023/02/08 12:40:54;;;;;;;2.20;2.00;;;;;;;;;;4537156;28;20885;-63
2023/02/08 12:43:04;;;;;;;2.22;1.88;;;;;;;;;;4536044;28;20160;-62
2023/02/08 12:45:15;;;;;;;2.10;1.70;;;;;;;;;;4536348;28;20558;-63
2023/02/08 12:47:31;;;;;;;1.98;1.77;;;;;;;;;;4525715;28;20025;-63
2023/02/08 12:50:00;;;;;;;2.55;2.00;;;;;;;;;;4536781;28;20748;-62
2023/02/08 12:52:23;;;;;;;2.38;1.90;;;;;;;;;;4518527;28;20045;-63
2023/02/08 12:54:36;;;;;;;2.20;1.88;;;;;;;;;;4527365;28;20156;-64
2023/02/08 12:56:48;;;;;;;2.17;1.80;;;;;;;;;;4508379;28;20038;-62
2023/02/08 12:58:59;;;;;;;2.60;2.15;;;;;;;;;;4534175;28;21459;-63
2023/02/08 13:01:14;;;;;;;2.40;1.70;;;;;;;;;;4535882;28;20037;-62
2023/02/08 13:03:29;;;;;;;2.50;1.80;;;;;;;;;;4535096;28;20087;-62
2023/02/08 13:05:43;;;;;;;2.13;1.77;;;;;;;;;;4535307;28;20501;-63
2023/02/08 13:07:58;;;;;;;2.00;1.70;;;;;;;;;;4534510;28;20119;-62
2023/02/08 13:10:11;;;;;;;1.95;1.65;;;;;;;;;;4516712;28;20041;-62
2023/02/08 13:12:28;;;;;;;2.15;1.95;;;;;;;;;;4517300;28;20077;-62
2023/02/08 13:14:44;;;;;;;1.73;1.63;;;;;;;;;;4535662;28;20041;-62
2023/02/08 13:16:57;;;;;;;2.28;2.05;;;;;;;;;;4534534;28;20033;-62
2023/02/08 13:19:26;;;;;;;1.60;1.50;;;;;;;;;;4535096;28;20775;-62
2023/02/08 13:21:40;;;;;;;2.22;2.03;;;;;;;;;;4516670;28;20098;-62
2023/02/08 13:23:51;;;;;;;1.60;1.48;;;;;;;;;;4534499;28;20568;-62
2023/02/08 13:26:05;;;;;;;1.80;1.70;;;;;;;;;;4534734;28;20037;-63